Main page
METAR-TAF:

METAR-TAF

Airports :

London-Heathrow, England

Heathrow Airport

latitude: 51-29N, longitude: 000-27W, elevation: 24 m

Current weather observation

The report was made 24 minutes ago, at 04:20 UTC
Wind 5 kt from the Southwest
Temperature 13°C
Humidity 94%
Pressure 1016 hPa
Visibility 10 km or more

METAR: EGLL 240420Z AUTO 22005KT 9999 NCD 13/12 Q1016

Time: 05:44 (04:44 UTC)

Forecast

The report was made 5 hours and 49 minutes ago, at 22:55 UTC
Forecast valid from 24 at 00 UTC to 25 at 06 UTC
Wind 8 kt from the West
Visibility 10 km or more
Few clouds at a height of 4000 ft
Becoming
from 25 at 00 UTC to 25 at 03 UTC
Visibility: 6000 m
Probability 30%
from 25 at 03 UTC to 25 at 06 UTC
Visibility: 3000 m
mist

TAF: EGLL 232255Z 2400/2506 26008KT 9999 FEW040 BECMG 2500/2503 6000 PROB30 2503/2506 3000 BR

Weather observations and forecasts of more than 4000 airports (METAR and TAF reports).

The available stations are represented by yellow and red dots on the map.

Hover mouse over dot to see the name of the station.

Then click to see weather observations and forecasts.

To change the map : click on the green buttons with a black cross to zoom in, on the green button with a dash to zoom out, or on the green arrows for adjacent maps.


METAR-TAF: